createdAt,value
2023-04-26T00:00:15.955Z,22.93
2023-04-26T00:01:15.952Z,22.93
2023-04-26T00:02:15.987Z,22.94
2023-04-26T00:03:15.990Z,22.94
2023-04-26T00:04:16.066Z,22.94
2023-04-26T00:05:15.892Z,22.94
2023-04-26T00:06:15.837Z,22.93
2023-04-26T00:07:15.890Z,22.92
2023-04-26T00:08:15.876Z,22.93
2023-04-26T00:09:15.792Z,22.92
2023-04-26T00:10:15.811Z,22.92
2023-04-26T00:11:15.747Z,22.92
2023-04-26T00:12:15.728Z,22.92
2023-04-26T00:13:15.767Z,22.92
2023-04-26T00:14:15.696Z,22.92
2023-04-26T00:15:15.685Z,22.93
2023-04-26T00:16:15.722Z,22.92
2023-04-26T00:17:15.633Z,22.92
2023-04-26T00:18:15.630Z,22.92
2023-04-26T00:19:15.583Z,22.92
2023-04-26T00:20:15.592Z,22.92
2023-04-26T00:21:15.553Z,22.92
2023-04-26T00:22:15.519Z,22.92
2023-04-26T00:23:15.502Z,22.93
2023-04-26T00:24:15.481Z,22.92
2023-04-26T00:25:15.470Z,22.91
2023-04-26T00:26:15.447Z,22.91
2023-04-26T00:27:15.429Z,22.92
2023-04-26T00:28:15.419Z,22.91
2023-04-26T00:29:15.400Z,22.89
2023-04-26T00:30:15.371Z,22.90
2023-04-26T00:31:15.378Z,22.90
2023-04-26T00:32:15.343Z,22.90
2023-04-26T00:33:15.323Z,22.91
2023-04-26T00:34:15.326Z,22.91
2023-04-26T00:35:15.274Z,22.91
2023-04-26T00:36:15.256Z,22.90
2023-04-26T00:37:15.234Z,22.90
2023-04-26T00:38:15.208Z,22.90
2023-04-26T00:39:15.216Z,22.90
2023-04-26T00:40:15.174Z,22.89
2023-04-26T00:41:15.135Z,22.89
2023-04-26T00:42:15.129Z,22.90
2023-04-26T00:43:15.100Z,22.90
2023-04-26T00:44:15.071Z,22.89
2023-04-26T00:45:15.042Z,22.90
2023-04-26T00:46:15.035Z,22.91
2023-04-26T00:47:14.999Z,22.89
2023-04-26T00:48:14.974Z,22.88
2023-04-26T00:49:14.957Z,22.89
2023-04-26T00:50:14.918Z,22.89
2023-04-26T00:51:14.907Z,22.88
2023-04-26T00:52:14.934Z,22.89
2023-04-26T00:53:14.919Z,22.89
2023-04-26T00:54:14.914Z,22.88
2023-04-26T00:55:14.895Z,22.89
2023-04-26T00:56:14.922Z,22.88
2023-04-26T00:57:14.903Z,22.88
2023-04-26T00:58:14.885Z,22.88
2023-04-26T00:59:14.907Z,22.88
2023-04-26T01:00:14.869Z,22.88
2023-04-26T01:01:14.892Z,22.88
2023-04-26T01:02:14.965Z,22.88
2023-04-26T01:03:14.979Z,22.88
2023-04-26T01:04:14.987Z,22.88
2023-04-26T01:05:14.843Z,22.88
2023-04-26T01:06:14.866Z,22.88
2023-04-26T01:07:14.842Z,22.88
2023-04-26T01:08:14.845Z,22.88
2023-04-26T01:09:14.848Z,22.88
2023-04-26T01:10:14.853Z,22.87
2023-04-26T01:11:14.832Z,22.87
2023-04-26T01:12:14.838Z,22.88
2023-04-26T01:13:14.850Z,22.87
2023-04-26T01:14:14.849Z,22.87
2023-04-26T01:15:14.823Z,22.87
2023-04-26T01:16:14.821Z,22.87
2023-04-26T01:17:14.835Z,22.87
2023-04-26T01:18:14.818Z,22.87
2023-04-26T01:19:14.923Z,22.87
2023-04-26T01:20:14.811Z,22.86
2023-04-26T01:21:14.795Z,22.87
2023-04-26T01:22:14.800Z,22.87
2023-04-26T01:23:14.828Z,22.87
2023-04-26T01:24:14.875Z,22.87
2023-04-26T01:25:14.796Z,22.87
2023-04-26T01:26:14.768Z,22.86
2023-04-26T01:27:14.773Z,22.87
2023-04-26T01:28:14.771Z,22.86
2023-04-26T01:29:14.769Z,22.86
2023-04-26T01:30:14.766Z,22.86
2023-04-26T01:31:14.795Z,22.86
2023-04-26T01:32:14.773Z,22.86
2023-04-26T01:33:14.782Z,22.86
2023-04-26T01:34:14.772Z,22.86
2023-04-26T01:35:14.770Z,22.85
2023-04-26T01:36:14.737Z,22.85
2023-04-26T01:37:14.747Z,22.85
2023-04-26T01:38:14.741Z,22.85
2023-04-26T01:39:14.715Z,22.85
2023-04-26T01:40:14.730Z,22.85
2023-04-26T01:41:14.709Z,22.85
2023-04-26T01:42:14.690Z,22.85
2023-04-26T01:43:14.690Z,22.84
2023-04-26T01:44:14.691Z,22.86
2023-04-26T01:45:14.688Z,22.85
2023-04-26T01:46:14.711Z,22.85
2023-04-26T01:47:14.676Z,22.85
2023-04-26T01:48:14.669Z,22.85
2023-04-26T01:49:14.674Z,22.85
2023-04-26T01:50:14.667Z,22.84
2023-04-26T01:51:14.667Z,22.84
2023-04-26T01:52:14.684Z,22.84
2023-04-26T01:53:14.668Z,22.84
2023-04-26T01:54:14.685Z,22.85
2023-04-26T01:55:14.652Z,22.85
2023-04-26T01:56:14.677Z,22.85
2023-04-26T01:57:14.716Z,22.85
2023-04-26T01:58:14.670Z,22.85
2023-04-26T01:59:14.670Z,22.85
2023-04-26T02:00:14.661Z,22.84
2023-04-26T02:01:14.689Z,22.84
2023-04-26T02:02:14.655Z,22.84
2023-04-26T02:03:14.841Z,22.84
2023-04-26T02:04:14.627Z,22.84
2023-04-26T02:05:14.673Z,22.84
2023-04-26T02:06:14.612Z,22.84
2023-04-26T02:07:14.711Z,22.83
2023-04-26T02:08:14.615Z,22.84
2023-04-26T02:09:14.616Z,22.84
2023-04-26T02:10:14.627Z,22.84
2023-04-26T02:11:14.633Z,22.84
2023-04-26T02:12:14.618Z,22.83
2023-04-26T02:13:14.610Z,22.83
2023-04-26T02:14:14.609Z,22.82
2023-04-26T02:15:14.607Z,22.83
2023-04-26T02:16:14.740Z,22.83
2023-04-26T02:17:14.616Z,22.83
2023-04-26T02:18:14.633Z,22.84
2023-04-26T02:19:14.605Z,22.84
2023-04-26T02:20:14.589Z,22.83
2023-04-26T02:21:14.588Z,22.83
2023-04-26T02:22:14.589Z,22.83
2023-04-26T02:23:14.592Z,22.82
2023-04-26T02:24:14.612Z,22.82
2023-04-26T02:25:14.580Z,22.82
2023-04-26T02:26:14.590Z,22.82
2023-04-26T02:27:14.540Z,22.82
2023-04-26T02:28:14.529Z,22.82
2023-04-26T02:29:14.512Z,22.82
2023-04-26T02:30:14.488Z,22.82
2023-04-26T02:31:14.539Z,22.82
2023-04-26T02:32:14.641Z,22.82
2023-04-26T02:33:14.420Z,22.81
2023-04-26T02:34:14.388Z,22.82
2023-04-26T02:35:14.366Z,22.81
2023-04-26T02:36:14.347Z,22.82
2023-04-26T02:37:14.348Z,22.82
2023-04-26T02:38:14.298Z,22.82
2023-04-26T02:39:14.285Z,22.82
2023-04-26T02:40:14.268Z,22.82
2023-04-26T02:41:14.239Z,22.82
2023-04-26T02:42:14.215Z,22.81
2023-04-26T02:43:14.237Z,22.81
2023-04-26T02:44:14.184Z,22.81
2023-04-26T02:45:14.149Z,22.81
2023-04-26T02:46:15.523Z,22.81
2023-04-26T02:47:14.298Z,22.81
2023-04-26T02:48:14.289Z,22.81
2023-04-26T02:49:14.337Z,22.81
2023-04-26T02:50:14.320Z,22.81
2023-04-26T02:51:14.314Z,22.81
2023-04-26T02:52:14.331Z,22.80
2023-04-26T02:53:14.309Z,22.81
2023-04-26T02:54:14.324Z,22.80
2023-04-26T02:55:14.338Z,22.80
2023-04-26T02:56:14.323Z,22.80
2023-04-26T02:57:14.328Z,22.80
2023-04-26T02:58:14.340Z,22.81
2023-04-26T02:59:14.342Z,22.81
2023-04-26T03:00:14.461Z,22.80
2023-04-26T03:01:14.357Z,22.80
2023-04-26T03:02:14.429Z,22.81
2023-04-26T03:03:14.446Z,22.81
2023-04-26T03:04:14.519Z,22.80
2023-04-26T03:05:14.363Z,22.80
2023-04-26T03:06:14.350Z,22.80
2023-04-26T03:07:14.352Z,22.80
2023-04-26T03:08:14.350Z,22.80
2023-04-26T03:09:14.364Z,22.80
2023-04-26T03:10:14.364Z,22.80
2023-04-26T03:11:14.350Z,22.80
2023-04-26T03:12:14.369Z,22.80
2023-04-26T03:13:14.363Z,22.80
2023-04-26T03:14:14.367Z,22.80
2023-04-26T03:15:14.377Z,22.80
2023-04-26T03:16:14.420Z,22.80
2023-04-26T03:17:14.369Z,22.80
2023-04-26T03:18:14.433Z,22.80
2023-04-26T03:19:14.396Z,22.80
2023-04-26T03:20:14.384Z,22.79
2023-04-26T03:21:14.379Z,22.80
2023-04-26T03:22:14.369Z,22.80
2023-04-26T03:23:14.369Z,22.79
2023-04-26T03:24:14.374Z,22.79
2023-04-26T03:25:14.377Z,22.79
2023-04-26T03:26:14.381Z,22.80
2023-04-26T03:27:14.387Z,22.79
2023-04-26T03:28:14.394Z,22.79
2023-04-26T03:29:14.368Z,22.79
2023-04-26T03:30:14.332Z,22.79
2023-04-26T03:31:14.320Z,22.80
2023-04-26T03:32:14.439Z,22.80
2023-04-26T03:33:14.444Z,22.79
2023-04-26T03:34:14.269Z,22.80
2023-04-26T03:35:14.258Z,22.80
2023-04-26T03:36:14.224Z,22.80
2023-04-26T03:37:14.205Z,22.78
2023-04-26T03:38:14.187Z,22.79
2023-04-26T03:39:14.183Z,22.79
2023-04-26T03:40:14.200Z,22.78
2023-04-26T03:41:14.202Z,22.79
2023-04-26T03:42:14.125Z,22.78
2023-04-26T03:43:14.126Z,22.79
2023-04-26T03:44:14.092Z,22.79
2023-04-26T03:45:14.064Z,22.79
2023-04-26T03:46:14.078Z,22.78
2023-04-26T03:47:14.001Z,22.80
2023-04-26T03:48:13.978Z,22.79
2023-04-26T03:49:13.976Z,22.79
2023-04-26T03:50:13.958Z,22.79
2023-04-26T03:51:13.968Z,22.79
2023-04-26T03:52:13.927Z,22.79
2023-04-26T03:53:13.938Z,22.78
2023-04-26T03:54:13.850Z,22.78
2023-04-26T03:55:13.862Z,22.79
2023-04-26T03:56:13.868Z,22.79
2023-04-26T03:57:13.866Z,22.78
2023-04-26T03:58:13.861Z,22.78
2023-04-26T03:59:13.900Z,22.79
2023-04-26T04:00:13.869Z,22.78
2023-04-26T04:01:13.886Z,22.77
2023-04-26T04:02:13.955Z,22.77
2023-04-26T04:03:14.088Z,22.78
2023-04-26T04:04:14.156Z,22.78
2023-04-26T04:05:14.179Z,22.78
2023-04-26T04:06:13.925Z,22.77
2023-04-26T04:07:13.966Z,22.78
2023-04-26T04:08:13.928Z,22.77
2023-04-26T04:09:13.953Z,22.77
2023-04-26T04:10:13.962Z,22.77
2023-04-26T04:11:13.970Z,22.76
2023-04-26T04:12:13.946Z,22.76
2023-04-26T04:13:13.944Z,22.76
2023-04-26T04:14:13.961Z,22.78
2023-04-26T04:15:13.942Z,22.78
2023-04-26T04:16:13.955Z,22.78
2023-04-26T04:17:13.877Z,22.78
2023-04-26T04:18:13.901Z,22.77
2023-04-26T04:19:13.840Z,22.77
2023-04-26T04:20:13.819Z,22.77
2023-04-26T04:21:13.830Z,22.77
2023-04-26T04:22:13.781Z,22.78
2023-04-26T04:23:13.798Z,22.78
2023-04-26T04:24:13.752Z,22.77
2023-04-26T04:25:13.748Z,22.76
2023-04-26T04:26:13.713Z,22.77
2023-04-26T04:27:13.696Z,22.76
2023-04-26T04:28:13.684Z,22.76
2023-04-26T04:29:13.664Z,22.75
2023-04-26T04:30:13.671Z,22.76
2023-04-26T04:31:13.697Z,22.76
2023-04-26T04:32:13.626Z,22.76
2023-04-26T04:33:13.623Z,22.76
2023-04-26T04:34:13.641Z,22.76
2023-04-26T04:35:13.619Z,22.76
2023-04-26T04:36:13.593Z,22.77
2023-04-26T04:37:13.549Z,22.77
2023-04-26T04:38:13.549Z,22.77
2023-04-26T04:39:13.525Z,22.77
2023-04-26T04:40:13.689Z,22.77
2023-04-26T04:41:13.475Z,22.77
2023-04-26T04:42:13.494Z,22.76
2023-04-26T04:43:13.442Z,22.77
2023-04-26T04:44:13.414Z,22.75
2023-04-26T04:45:13.406Z,22.76
2023-04-26T04:46:13.448Z,22.76
2023-04-26T04:47:13.364Z,22.76
2023-04-26T04:48:13.345Z,22.76
2023-04-26T04:49:13.332Z,22.76
2023-04-26T04:50:13.328Z,22.75
2023-04-26T04:51:13.284Z,22.77
2023-04-26T04:52:13.266Z,22.76
2023-04-26T04:53:13.264Z,22.75
2023-04-26T04:54:13.268Z,22.75
2023-04-26T04:55:13.218Z,22.76
2023-04-26T04:56:13.198Z,22.75
2023-04-26T04:57:13.243Z,22.75
2023-04-26T04:58:13.160Z,22.76
2023-04-26T04:59:13.158Z,22.76
2023-04-26T05:00:13.136Z,22.76
2023-04-26T05:01:13.112Z,22.76
2023-04-26T05:02:13.257Z,22.76
2023-04-26T05:03:13.220Z,22.76
2023-04-26T05:04:13.263Z,22.76
2023-04-26T05:05:13.102Z,22.76
2023-04-26T05:06:13.032Z,22.76
2023-04-26T05:07:13.002Z,22.76
2023-04-26T05:08:13.017Z,22.77
2023-04-26T05:09:12.981Z,22.77
2023-04-26T05:10:12.952Z,22.77
2023-04-26T05:11:12.943Z,22.78
2023-04-26T05:12:12.923Z,22.77
2023-04-26T05:13:12.909Z,22.77
2023-04-26T05:14:12.903Z,22.77
2023-04-26T05:15:12.893Z,22.77
2023-04-26T05:16:12.910Z,22.77
2023-04-26T05:17:12.854Z,22.78
2023-04-26T05:18:12.984Z,22.77
2023-04-26T05:19:12.820Z,22.78
2023-04-26T05:20:12.802Z,22.78
2023-04-26T05:21:12.783Z,22.78
2023-04-26T05:22:12.789Z,22.79
2023-04-26T05:23:12.788Z,22.80
2023-04-26T05:24:12.799Z,22.80
2023-04-26T05:25:12.795Z,22.79
2023-04-26T05:26:12.800Z,22.80
2023-04-26T05:27:12.809Z,22.80
2023-04-26T05:28:12.898Z,22.80
2023-04-26T05:29:12.828Z,22.79
2023-04-26T05:30:12.838Z,22.80
2023-04-26T05:31:12.879Z,22.79
2023-04-26T05:32:12.885Z,22.79
2023-04-26T05:33:12.940Z,22.82
2023-04-26T05:34:12.863Z,22.85
2023-04-26T05:35:12.880Z,22.88
2023-04-26T05:36:12.876Z,22.92
2023-04-26T05:37:12.862Z,22.94
2023-04-26T05:38:12.857Z,22.98
2023-04-26T05:39:12.918Z,23.01
2023-04-26T05:40:12.876Z,23.04
2023-04-26T05:41:12.833Z,23.07
2023-04-26T05:42:12.811Z,23.09
2023-04-26T05:43:12.852Z,23.12
2023-04-26T05:44:12.786Z,23.14
2023-04-26T05:45:12.766Z,23.17
2023-04-26T05:46:12.988Z,23.19
2023-04-26T05:47:12.814Z,23.22
2023-04-26T05:48:12.813Z,23.24
2023-04-26T05:49:12.772Z,23.27
2023-04-26T05:50:12.831Z,23.30
2023-04-26T05:51:12.809Z,23.33
2023-04-26T05:52:12.861Z,23.36
2023-04-26T05:53:12.879Z,23.38
2023-04-26T05:54:12.929Z,23.41
2023-04-26T05:55:12.983Z,23.43
2023-04-26T05:56:13.017Z,23.44
2023-04-26T05:57:13.130Z,23.46
2023-04-26T05:58:13.126Z,23.48
2023-04-26T05:59:13.156Z,23.49
2023-04-26T06:00:13.192Z,23.50
2023-04-26T06:01:13.306Z,23.52
2023-04-26T06:02:13.482Z,23.54
2023-04-26T06:03:13.524Z,23.55
2023-04-26T06:04:13.568Z,23.56
2023-04-26T06:05:13.598Z,23.59
2023-04-26T06:06:13.411Z,23.60
2023-04-26T06:07:13.428Z,23.61
2023-04-26T06:08:13.443Z,23.63
2023-04-26T06:09:14.427Z,23.64
2023-04-26T06:10:13.520Z,23.65
2023-04-26T06:11:13.515Z,23.66
2023-04-26T06:12:18.647Z,23.68
2023-04-26T06:13:13.552Z,23.69
2023-04-26T06:14:28.867Z,23.71
2023-04-26T06:15:14.556Z,23.72
2023-04-26T06:16:13.503Z,23.75
2023-04-26T06:17:13.478Z,23.76
2023-04-26T06:18:13.457Z,23.77
2023-04-26T06:19:13.395Z,23.80
2023-04-26T06:20:13.364Z,23.80
2023-04-26T06:21:13.326Z,23.81
2023-04-26T06:22:13.326Z,23.84
2023-04-26T06:23:13.324Z,23.86
2023-04-26T06:24:13.262Z,23.88
2023-04-26T06:25:13.303Z,23.90
2023-04-26T06:26:13.208Z,23.92
2023-04-26T06:27:13.178Z,23.93
2023-04-26T06:28:13.246Z,23.95
2023-04-26T06:29:13.125Z,23.97
2023-04-26T06:30:13.112Z,23.98
2023-04-26T06:31:13.175Z,23.99
2023-04-26T06:32:13.038Z,24.01
2023-04-26T06:33:13.051Z,24.02
2023-04-26T06:34:14.434Z,24.03
2023-04-26T06:35:12.978Z,24.06
2023-04-26T06:36:12.948Z,24.11
2023-04-26T06:37:12.986Z,24.15
2023-04-26T06:38:12.924Z,24.18
2023-04-26T06:39:12.861Z,24.22
2023-04-26T06:40:12.850Z,24.26
2023-04-26T06:41:12.830Z,24.27
2023-04-26T06:42:12.784Z,24.30
2023-04-26T06:43:13.450Z,24.33
2023-04-26T06:44:12.760Z,24.34
2023-04-26T06:45:12.831Z,24.33
2023-04-26T06:46:12.804Z,24.34
2023-04-26T06:47:12.662Z,24.33
2023-04-26T06:48:12.663Z,24.34
2023-04-26T06:49:12.667Z,24.37
2023-04-26T06:50:12.565Z,24.41
2023-04-26T06:51:12.657Z,24.43
2023-04-26T06:52:12.509Z,24.45
2023-04-26T06:53:12.522Z,24.47
2023-04-26T06:54:12.455Z,24.49
2023-04-26T06:55:12.482Z,24.52
2023-04-26T06:56:12.400Z,24.57
2023-04-26T06:57:12.359Z,24.62
2023-04-26T06:58:12.357Z,24.65
2023-04-26T06:59:12.396Z,24.68
2023-04-26T07:00:12.452Z,24.70
2023-04-26T07:01:12.561Z,24.72
2023-04-26T07:02:13.925Z,24.72
2023-04-26T07:03:12.497Z,24.73
2023-04-26T07:04:12.466Z,24.76
2023-04-26T07:05:12.378Z,24.78
2023-04-26T07:06:12.327Z,24.79
2023-04-26T07:07:13.651Z,24.79
2023-04-26T07:08:12.233Z,24.81
2023-04-26T07:09:12.178Z,24.84
2023-04-26T07:10:12.154Z,24.85
2023-04-26T07:11:12.150Z,24.87
2023-04-26T07:12:12.107Z,24.88
2023-04-26T07:13:12.071Z,24.89
2023-04-26T07:14:12.044Z,24.90
2023-04-26T07:15:11.984Z,24.93
2023-04-26T07:16:11.933Z,24.93
2023-04-26T07:17:11.939Z,24.91
2023-04-26T07:18:11.893Z,24.91
2023-04-26T07:19:11.893Z,24.90
2023-04-26T07:20:11.858Z,24.89
2023-04-26T07:21:11.812Z,24.89
2023-04-26T07:22:11.743Z,24.90
2023-04-26T07:23:11.690Z,24.90
2023-04-26T07:24:11.646Z,24.91
2023-04-26T07:25:11.659Z,24.92
2023-04-26T07:26:11.585Z,24.92
2023-04-26T07:27:11.548Z,24.94
2023-04-26T07:28:11.510Z,24.94
2023-04-26T07:29:11.493Z,24.95
2023-04-26T07:30:11.571Z,24.96
2023-04-26T07:31:11.485Z,24.98
2023-04-26T07:32:11.568Z,24.99
2023-04-26T07:33:11.470Z,25.00
2023-04-26T07:34:11.384Z,25.01
2023-04-26T07:35:11.407Z,25.02
2023-04-26T07:36:11.314Z,25.02
2023-04-26T07:37:11.292Z,25.03
2023-04-26T07:38:11.308Z,25.05
2023-04-26T07:39:11.517Z,25.05
2023-04-26T07:40:11.334Z,25.06
2023-04-26T07:41:11.382Z,25.07
2023-04-26T07:42:11.348Z,25.07
2023-04-26T07:43:11.358Z,25.08
2023-04-26T07:44:11.404Z,25.09
2023-04-26T07:45:11.393Z,25.10
2023-04-26T07:46:11.459Z,25.11
2023-04-26T07:47:11.409Z,25.11
2023-04-26T07:48:11.446Z,25.11
2023-04-26T07:49:11.411Z,25.11
2023-04-26T07:50:11.429Z,25.11
2023-04-26T07:51:11.383Z,25.11
2023-04-26T07:52:11.398Z,25.11
2023-04-26T07:53:11.317Z,25.11
2023-04-26T07:54:11.340Z,25.13
2023-04-26T07:55:11.364Z,25.13
2023-04-26T07:56:11.204Z,25.13
2023-04-26T07:57:11.171Z,25.14
2023-04-26T07:58:11.125Z,25.14
2023-04-26T07:59:11.084Z,25.14
2023-04-26T08:00:11.083Z,25.15
2023-04-26T08:01:11.014Z,25.14
2023-04-26T08:02:11.089Z,25.16
2023-04-26T08:03:11.182Z,25.16
2023-04-26T08:04:11.110Z,25.16
2023-04-26T08:05:11.127Z,25.17
2023-04-26T08:06:11.367Z,25.16
2023-04-26T08:07:10.916Z,25.18
2023-04-26T08:08:13.606Z,25.19
2023-04-26T08:09:10.957Z,25.21
2023-04-26T08:10:11.059Z,25.21
2023-04-26T08:11:10.822Z,25.22
2023-04-26T08:12:10.843Z,25.23
2023-04-26T08:13:10.716Z,25.23
2023-04-26T08:14:10.696Z,25.24
2023-04-26T08:15:10.660Z,25.24
2023-04-26T08:16:11.473Z,25.24
2023-04-26T08:17:10.707Z,25.25
2023-04-26T08:18:10.595Z,25.24
2023-04-26T08:19:10.510Z,25.23
2023-04-26T08:20:10.457Z,25.24
2023-04-26T08:21:10.419Z,25.23
2023-04-26T08:22:10.380Z,25.24
2023-04-26T08:23:10.370Z,25.24
2023-04-26T08:24:10.323Z,25.24
2023-04-26T08:25:10.268Z,25.25
2023-04-26T08:26:10.262Z,25.25
2023-04-26T08:27:10.192Z,25.26
2023-04-26T08:28:10.162Z,25.24
2023-04-26T08:29:10.137Z,25.24
2023-04-26T08:30:10.956Z,25.27
2023-04-26T08:31:10.460Z,25.31
2023-04-26T08:32:10.076Z,25.31
2023-04-26T08:33:10.064Z,25.28
2023-04-26T08:34:09.938Z,25.25
2023-04-26T08:35:09.903Z,25.22
2023-04-26T08:36:09.876Z,25.18
2023-04-26T08:37:09.837Z,25.14
2023-04-26T08:38:09.797Z,25.12
2023-04-26T08:39:09.743Z,25.09
2023-04-26T08:40:09.723Z,25.08
2023-04-26T08:41:09.686Z,25.05
2023-04-26T08:42:09.679Z,25.03
2023-04-26T08:43:09.604Z,25.01
2023-04-26T08:44:09.608Z,24.99
2023-04-26T08:45:09.673Z,24.95
2023-04-26T08:46:09.702Z,24.92
2023-04-26T08:47:09.733Z,24.89
2023-04-26T08:48:09.764Z,24.87
2023-04-26T08:49:09.752Z,24.85
2023-04-26T08:50:09.785Z,24.83
2023-04-26T08:51:09.810Z,24.80
2023-04-26T08:52:09.760Z,24.78
2023-04-26T08:53:09.722Z,24.75
2023-04-26T08:54:09.691Z,24.73
2023-04-26T08:55:09.648Z,24.72
2023-04-26T08:56:09.631Z,24.71
2023-04-26T08:57:09.598Z,24.69
2023-04-26T08:58:09.542Z,24.70
2023-04-26T08:59:09.495Z,24.69
2023-04-26T09:00:09.545Z,24.69
2023-04-26T09:01:09.488Z,24.67
2023-04-26T09:02:09.417Z,24.64
2023-04-26T09:03:09.608Z,24.61
2023-04-26T09:04:09.474Z,24.61
2023-04-26T09:05:09.575Z,24.61
2023-04-26T09:06:09.289Z,24.62
2023-04-26T09:07:09.212Z,24.62
2023-04-26T09:08:09.201Z,24.62
2023-04-26T09:09:09.282Z,24.61
2023-04-26T09:10:09.319Z,24.61
2023-04-26T09:11:09.330Z,24.61
2023-04-26T09:12:09.256Z,24.61
2023-04-26T09:13:09.195Z,24.60
2023-04-26T09:14:09.224Z,24.60
2023-04-26T09:15:09.163Z,24.59
2023-04-26T09:16:09.230Z,24.59
2023-04-26T09:17:09.165Z,24.59
2023-04-26T09:18:09.208Z,24.59
2023-04-26T09:19:09.216Z,24.59
2023-04-26T09:20:09.127Z,24.58
2023-04-26T09:21:09.215Z,24.58
2023-04-26T09:22:09.128Z,24.57
2023-04-26T09:23:09.214Z,24.58
2023-04-26T09:24:09.174Z,24.58
2023-04-26T09:25:09.136Z,24.57
2023-04-26T09:26:09.989Z,24.57
2023-04-26T09:27:09.205Z,24.57
2023-04-26T09:28:09.186Z,24.57
2023-04-26T09:29:09.156Z,24.57
2023-04-26T09:30:09.146Z,24.55
2023-04-26T09:31:09.280Z,24.53
2023-04-26T09:32:09.100Z,24.51
2023-04-26T09:33:09.191Z,24.50
2023-04-26T09:34:09.140Z,24.52
2023-04-26T09:35:09.174Z,24.52
2023-04-26T09:36:09.085Z,24.51
2023-04-26T09:37:09.092Z,24.50
2023-04-26T09:38:12.154Z,24.49
2023-04-26T09:39:08.906Z,24.49
2023-04-26T09:40:08.842Z,24.49
2023-04-26T09:41:09.403Z,24.45
2023-04-26T09:42:09.541Z,24.44
2023-04-26T09:43:08.948Z,24.47
2023-04-26T09:44:08.711Z,24.48
2023-04-26T09:45:08.728Z,24.52
2023-04-26T09:46:08.645Z,24.56
2023-04-26T09:47:08.609Z,24.60
2023-04-26T09:48:08.535Z,24.63
2023-04-26T09:49:08.530Z,24.65
2023-04-26T09:50:08.509Z,24.67
2023-04-26T09:51:08.448Z,24.69
2023-04-26T09:52:08.381Z,24.69
2023-04-26T09:53:08.365Z,24.72
2023-04-26T09:54:08.450Z,24.73
2023-04-26T09:55:08.621Z,24.76
2023-04-26T09:56:08.261Z,24.76
2023-04-26T09:57:08.237Z,24.79
2023-04-26T09:58:08.249Z,24.81
2023-04-26T09:59:08.156Z,24.83
2023-04-26T10:00:08.345Z,24.86
2023-04-26T10:01:08.229Z,24.87
2023-04-26T10:02:08.217Z,24.86
2023-04-26T10:03:08.365Z,24.87
2023-04-26T10:04:08.200Z,24.89
2023-04-26T10:05:07.940Z,24.91
2023-04-26T10:06:07.949Z,24.91
2023-04-26T10:07:07.962Z,24.91
2023-04-26T10:08:07.987Z,24.91
2023-04-26T10:09:08.085Z,24.89
2023-04-26T10:10:08.076Z,24.89
2023-04-26T10:11:08.950Z,24.88
2023-04-26T10:12:08.111Z,24.86
2023-04-26T10:13:08.125Z,24.82
2023-04-26T10:14:08.261Z,24.82
2023-04-26T10:15:08.515Z,24.81
2023-04-26T10:16:08.312Z,24.79
2023-04-26T10:17:08.305Z,24.79
2023-04-26T10:18:08.249Z,24.77
2023-04-26T10:19:08.211Z,24.75
2023-04-26T10:20:08.200Z,24.74
2023-04-26T10:21:08.198Z,24.72
2023-04-26T10:22:08.104Z,24.71
2023-04-26T10:23:08.082Z,24.70
2023-04-26T10:24:08.034Z,24.69
2023-04-26T10:25:08.056Z,24.68
2023-04-26T10:26:08.004Z,24.67
2023-04-26T10:27:08.013Z,24.65
2023-04-26T10:28:07.972Z,24.64
2023-04-26T10:29:08.272Z,24.63
2023-04-26T10:30:07.841Z,24.62
2023-04-26T10:31:08.116Z,24.62
2023-04-26T10:32:07.914Z,24.61
2023-04-26T10:33:07.819Z,24.60
2023-04-26T10:34:10.251Z,24.59
2023-04-26T10:35:07.796Z,24.59
2023-04-26T10:36:07.729Z,24.59
2023-04-26T10:37:07.672Z,24.59
2023-04-26T10:38:07.651Z,24.57
2023-04-26T10:39:07.650Z,24.59
2023-04-26T10:40:07.618Z,24.59
2023-04-26T10:41:07.579Z,24.61
2023-04-26T10:42:07.584Z,24.62
2023-04-26T10:43:07.522Z,24.65
2023-04-26T10:44:07.488Z,24.67
2023-04-26T10:45:07.457Z,24.67
2023-04-26T10:46:07.466Z,24.67
2023-04-26T10:47:07.441Z,24.67
2023-04-26T10:48:07.407Z,24.67
2023-04-26T10:49:07.328Z,24.68
2023-04-26T10:50:07.372Z,24.68
2023-04-26T10:51:07.341Z,24.67
2023-04-26T10:52:07.252Z,24.67
2023-04-26T10:53:07.204Z,24.67
2023-04-26T10:54:07.170Z,24.67
2023-04-26T10:55:07.132Z,24.66
2023-04-26T10:56:07.135Z,24.67
2023-04-26T10:57:07.095Z,24.66
2023-04-26T10:58:07.029Z,24.65
2023-04-26T10:59:22.616Z,24.65
2023-04-26T11:00:08.141Z,24.64
2023-04-26T11:01:07.052Z,24.64
2023-04-26T11:02:06.905Z,24.65
2023-04-26T11:03:07.204Z,24.65
2023-04-26T11:04:06.877Z,24.65
2023-04-26T11:05:06.841Z,24.65
2023-04-26T11:06:06.779Z,24.65
2023-04-26T11:07:06.757Z,24.64
2023-04-26T11:08:06.745Z,24.65
2023-04-26T11:09:06.777Z,24.64
2023-04-26T11:10:06.814Z,24.64
2023-04-26T11:11:06.902Z,24.61
2023-04-26T11:12:06.874Z,24.61
2023-04-26T11:13:06.900Z,24.61
2023-04-26T11:14:06.924Z,24.61
2023-04-26T11:15:06.961Z,24.61
2023-04-26T11:16:07.019Z,24.61
2023-04-26T11:17:06.960Z,24.59
2023-04-26T11:18:06.971Z,24.59
2023-04-26T11:19:06.882Z,24.59
2023-04-26T11:20:06.853Z,24.59
2023-04-26T11:21:06.828Z,24.58
2023-04-26T11:22:06.804Z,24.59
2023-04-26T11:23:06.764Z,24.58
2023-04-26T11:24:06.753Z,24.57
2023-04-26T11:25:06.746Z,24.57
2023-04-26T11:26:06.684Z,24.56
2023-04-26T11:27:06.740Z,24.55
2023-04-26T11:28:06.691Z,24.55
2023-04-26T11:29:06.716Z,24.55
2023-04-26T11:30:06.704Z,24.54
2023-04-26T11:31:06.727Z,24.53
2023-04-26T11:32:06.661Z,24.53
2023-04-26T11:33:06.749Z,24.52
2023-04-26T11:34:06.648Z,24.52
2023-04-26T11:35:06.661Z,24.51
2023-04-26T11:36:06.672Z,24.50
2023-04-26T11:37:06.679Z,24.50
2023-04-26T11:38:06.656Z,24.51
2023-04-26T11:39:06.723Z,24.50
2023-04-26T11:40:06.676Z,24.50
2023-04-26T11:41:06.692Z,24.49
2023-04-26T11:42:06.709Z,24.49
2023-04-26T11:43:06.682Z,24.48
2023-04-26T11:44:06.717Z,24.47
2023-04-26T11:45:06.710Z,24.47
2023-04-26T11:46:06.846Z,24.46
2023-04-26T11:47:06.841Z,24.47
2023-04-26T11:48:06.774Z,24.46
2023-04-26T11:49:06.749Z,24.46
2023-04-26T11:50:06.707Z,24.46
2023-04-26T11:51:06.684Z,24.44
2023-04-26T11:52:06.711Z,24.46
2023-04-26T11:53:06.642Z,24.46
2023-04-26T11:54:06.606Z,24.45
2023-04-26T11:55:06.592Z,24.45
2023-04-26T11:56:06.562Z,24.45
2023-04-26T11:57:06.536Z,24.45
2023-04-26T11:58:06.496Z,24.45
2023-04-26T11:59:06.648Z,24.44
2023-04-26T12:00:06.464Z,24.45
2023-04-26T12:01:06.426Z,24.45
2023-04-26T12:02:06.562Z,24.44
2023-04-26T12:03:06.649Z,24.44
2023-04-26T12:04:06.643Z,24.44
2023-04-26T12:05:06.502Z,24.44
2023-04-26T12:06:06.426Z,24.43
2023-04-26T12:07:06.504Z,24.43
2023-04-26T12:08:06.369Z,24.44
2023-04-26T12:09:06.346Z,24.43
2023-04-26T12:10:06.331Z,24.43
2023-04-26T12:11:06.325Z,24.44
2023-04-26T12:12:06.359Z,24.44
2023-04-26T12:13:06.245Z,24.43
2023-04-26T12:14:06.270Z,24.44
2023-04-26T12:15:06.341Z,24.44
2023-04-26T12:16:15.176Z,24.44
2023-04-26T12:17:07.184Z,24.42
2023-04-26T12:18:06.185Z,24.42
2023-04-26T12:19:06.109Z,24.41
2023-04-26T12:20:06.222Z,24.42
2023-04-26T12:21:06.094Z,24.42
2023-04-26T12:22:06.085Z,24.43
2023-04-26T12:23:06.035Z,24.43
2023-04-26T12:24:06.002Z,24.42
2023-04-26T12:25:05.964Z,24.42
2023-04-26T12:26:06.032Z,24.41
2023-04-26T12:27:05.996Z,24.40
2023-04-26T12:28:05.977Z,24.40
2023-04-26T12:29:05.857Z,24.39
2023-04-26T12:30:05.851Z,24.39
2023-04-26T12:31:05.831Z,24.38
2023-04-26T12:32:05.824Z,24.39
2023-04-26T12:33:15.501Z,24.39
2023-04-26T12:34:06.731Z,24.39
2023-04-26T12:35:05.712Z,24.39
2023-04-26T12:36:05.674Z,24.41
2023-04-26T12:37:05.741Z,24.41
2023-04-26T12:38:05.625Z,24.41
2023-04-26T12:39:05.614Z,24.41
2023-04-26T12:40:05.580Z,24.41
2023-04-26T12:41:05.550Z,24.41
2023-04-26T12:42:05.524Z,24.41
2023-04-26T12:43:05.488Z,24.40
2023-04-26T12:44:05.452Z,24.40
2023-04-26T12:45:05.419Z,24.41
2023-04-26T12:46:05.457Z,24.41
2023-04-26T12:47:05.438Z,24.42
2023-04-26T12:48:05.384Z,24.41
2023-04-26T12:49:05.327Z,24.42
2023-04-26T12:50:05.287Z,24.41
2023-04-26T12:51:05.252Z,24.41
2023-04-26T12:52:05.257Z,24.42